createdAt,value
2022-09-23T00:00:00.234Z,7.30
2022-09-23T00:05:05.003Z,7.30
2022-09-23T00:10:09.335Z,7.20
2022-09-23T00:15:12.722Z,7.20
2022-09-23T00:20:17.561Z,7.10
2022-09-23T00:25:21.154Z,7.10
2022-09-23T00:30:24.504Z,7.20
2022-09-23T00:35:29.107Z,7.00
2022-09-23T00:40:35.049Z,7.00
2022-09-23T00:45:38.396Z,7.00
2022-09-23T00:50:43.276Z,7.00
2022-09-23T00:55:47.226Z,7.00
2022-09-23T01:00:50.168Z,7.20
2022-09-23T01:05:54.541Z,7.00
2022-09-23T01:11:04.087Z,6.90
2022-09-23T01:16:10.554Z,6.90
2022-09-23T01:21:30.595Z,7.00
2022-09-23T01:26:57.631Z,6.80
2022-09-23T01:32:04.120Z,6.70
2022-09-23T01:37:08.831Z,7.00
2022-09-23T01:42:17.408Z,6.60
2022-09-23T01:47:23.881Z,6.60
2022-09-23T01:52:28.572Z,7.10
2022-09-23T01:57:33.512Z,6.70
2022-09-23T02:02:40.854Z,6.60
2022-09-23T02:07:46.022Z,6.60
2022-09-23T02:12:49.738Z,6.80
2022-09-23T02:17:56.517Z,6.60
2022-09-23T02:23:03.100Z,6.60
2022-09-23T02:28:09.129Z,6.80
2022-09-23T02:33:17.108Z,6.70
2022-09-23T02:38:21.788Z,7.10
2022-09-23T02:43:29.985Z,7.10
2022-09-23T02:48:35.825Z,6.40
2022-09-23T02:53:39.004Z,7.00
2022-09-23T02:58:44.149Z,6.20
2022-09-23T03:03:50.894Z,6.40
2022-09-23T03:08:55.801Z,6.30
2022-09-23T03:14:06.749Z,6.50
2022-09-23T03:19:19.502Z,6.40
2022-09-23T03:24:22.575Z,6.30
2022-09-23T03:29:25.786Z,6.10
2022-09-23T03:34:30.680Z,6.10
2022-09-23T03:39:36.737Z,6.00
2022-09-23T03:44:43.716Z,6.00
2022-09-23T03:49:49.369Z,6.00
2022-09-23T03:54:52.376Z,5.90
2022-09-23T03:59:55.583Z,5.90
2022-09-23T04:04:59.973Z,5.90
2022-09-23T04:10:02.911Z,5.80
2022-09-23T04:15:07.019Z,5.90
2022-09-23T04:20:11.967Z,6.00
2022-09-23T04:25:15.232Z,6.20
2022-09-23T04:30:18.808Z,5.80
2022-09-23T04:35:26.209Z,5.60
2022-09-23T04:40:29.653Z,5.00
2022-09-23T04:45:32.530Z,5.50
2022-09-23T04:50:37.140Z,5.50
2022-09-23T04:55:40.114Z,5.40
2022-09-23T05:00:43.392Z,5.80
2022-09-23T05:05:47.996Z,5.50
2022-09-23T05:10:50.875Z,5.40
2022-09-23T05:15:59.235Z,5.40
2022-09-23T05:21:04.514Z,5.60
2022-09-23T05:26:08.787Z,6.10
2022-09-23T05:31:19.702Z,5.50
2022-09-23T05:36:24.894Z,5.80
2022-09-23T05:41:28.029Z,5.50
2022-09-23T05:46:31.773Z,5.50
2022-09-23T05:51:36.504Z,5.50
2022-09-23T05:56:39.862Z,5.90
2022-09-23T06:01:43.038Z,5.60
2022-09-23T06:06:47.672Z,6.20
2022-09-23T06:11:56.886Z,6.40
2022-09-23T06:17:02.317Z,6.10
2022-09-23T06:22:07.131Z,6.30
2022-09-23T06:27:10.789Z,6.60
2022-09-23T06:32:13.711Z,6.80
2022-09-23T06:37:20.461Z,6.90
2022-09-23T06:42:24.034Z,7.20
2022-09-23T06:47:27.278Z,7.40
2022-09-23T06:52:31.777Z,7.60
2022-09-23T06:57:35.948Z,7.90
2022-09-23T07:02:42.730Z,7.90
2022-09-23T07:07:47.200Z,8.10
2022-09-23T07:12:50.193Z,8.60
2022-09-23T07:17:53.637Z,8.70
2022-09-23T07:22:58.064Z,8.90
2022-09-23T07:28:01.105Z,9.20
2022-09-23T07:33:14.892Z,9.50
2022-09-23T07:38:30.246Z,9.90
2022-09-23T07:43:33.526Z,10.20
2022-09-23T07:48:39.531Z,10.50
2022-09-23T07:53:44.833Z,11.10
2022-09-23T07:58:59.822Z,11.70
2022-09-23T08:04:04.375Z,12.20
2022-09-23T08:09:09.265Z,12.50
2022-09-23T08:14:13.517Z,13.20
2022-09-23T08:19:16.747Z,13.40
2022-09-23T08:24:24.620Z,13.60
2022-09-23T08:29:30.749Z,14.00
2022-09-23T08:34:35.706Z,13.60
2022-09-23T08:39:40.202Z,14.40
2022-09-23T08:44:47.946Z,14.60
2022-09-23T08:50:00.446Z,15.00
2022-09-23T08:55:07.809Z,15.70
2022-09-23T09:00:15.803Z,16.00
2022-09-23T09:05:21.500Z,16.50
2022-09-23T09:10:26.773Z,16.80
2022-09-23T09:15:29.851Z,17.70
2022-09-23T09:20:38.088Z,18.10
2022-09-23T09:25:46.514Z,18.10
2022-09-23T09:30:53.269Z,16.90
2022-09-23T09:36:08.844Z,16.70
2022-09-23T09:41:15.529Z,16.70
2022-09-23T09:46:39.835Z,17.90
2022-09-23T09:51:43.271Z,18.50
2022-09-23T10:02:13.475Z,19.00
2022-09-23T10:07:17.091Z,18.90
2022-09-23T10:12:21.858Z,19.30
2022-09-23T10:17:25.606Z,19.20
2022-09-23T10:22:30.252Z,20.60
2022-09-23T10:27:35.998Z,20.50
2022-09-23T10:32:40.543Z,20.80
2022-09-23T10:37:45.276Z,20.40
2022-09-23T10:43:14.604Z,20.50
2022-09-23T10:48:21.272Z,20.40
2022-09-23T10:53:28.288Z,20.50
2022-09-23T10:58:50.609Z,19.60
2022-09-23T11:04:03.597Z,20.50
2022-09-23T11:09:20.125Z,20.50
2022-09-23T11:14:44.996Z,21.00
2022-09-23T11:20:02.041Z,22.20
2022-09-23T11:25:23.183Z,22.20
2022-09-23T11:30:29.638Z,21.90
2022-09-23T11:35:35.708Z,21.70
2022-09-23T11:40:43.956Z,21.90
2022-09-23T11:45:52.828Z,22.30
2022-09-23T11:50:58.078Z,21.00
2022-09-23T11:56:03.684Z,20.50
2022-09-23T12:01:10.285Z,19.90
2022-09-23T12:06:15.866Z,20.50
2022-09-23T12:11:24.549Z,21.40
2022-09-23T12:16:37.501Z,22.80
2022-09-23T12:21:51.566Z,22.00
2022-09-23T12:26:57.205Z,20.70
2022-09-23T12:32:07.392Z,20.70
2022-09-23T12:37:10.564Z,21.40
2022-09-23T12:42:19.819Z,22.70
2022-09-23T12:47:38.801Z,25.00
2022-09-23T12:52:42.097Z,22.70
2022-09-23T12:57:45.242Z,22.30
2022-09-23T13:03:13.897Z,21.70
2022-09-23T13:08:18.109Z,21.80
2022-09-23T13:13:23.646Z,21.30
2022-09-23T13:18:51.345Z,21.10
2022-09-23T13:24:19.532Z,21.10
2022-09-23T13:29:37.715Z,21.30
2022-09-23T13:34:44.216Z,21.00
2022-09-23T13:39:47.300Z,21.20
2022-09-23T13:44:52.458Z,20.60
2022-09-23T13:49:57.825Z,19.90
2022-09-23T13:55:01.115Z,19.80
2022-09-23T14:00:17.960Z,20.10
2022-09-23T14:05:24.691Z,19.90
2022-09-23T14:10:27.802Z,19.70
2022-09-23T14:15:31.072Z,19.10
2022-09-23T14:20:36.446Z,19.10
2022-09-23T14:25:39.569Z,19.10
2022-09-23T14:30:43.918Z,19.70
2022-09-23T14:35:49.456Z,19.50
2022-09-23T14:40:53.319Z,19.30
2022-09-23T14:45:57.207Z,19.10
2022-09-23T14:51:02.408Z,18.60
2022-09-23T14:56:14.282Z,18.50
2022-09-23T15:01:28.729Z,18.40
2022-09-23T15:06:33.185Z,18.50
2022-09-23T15:11:36.569Z,18.70
2022-09-23T15:16:40.019Z,18.70
2022-09-23T15:21:45.871Z,18.70
2022-09-23T15:26:52.605Z,18.60
2022-09-23T15:31:57.113Z,18.30
2022-09-23T15:37:05.351Z,18.00
2022-09-23T15:42:12.746Z,18.10
2022-09-23T15:47:17.178Z,18.20
2022-09-23T15:52:22.668Z,18.20
2022-09-23T15:57:26.048Z,17.70
2022-09-23T16:02:29.466Z,17.70
2022-09-23T16:07:36.387Z,17.80
2022-09-23T16:12:39.389Z,17.90
2022-09-23T16:17:43.925Z,17.90
2022-09-23T16:22:54.630Z,17.70
2022-09-23T16:27:57.644Z,17.80
2022-09-23T16:33:01.862Z,17.70
2022-09-23T16:38:06.819Z,17.70
2022-09-23T16:43:10.015Z,17.70
2022-09-23T16:48:13.010Z,17.60
2022-09-23T16:53:18.038Z,17.40
2022-09-23T16:58:24.014Z,17.10
2022-09-23T17:03:42.193Z,17.00
2022-09-23T17:08:48.385Z,17.00
2022-09-23T17:13:55.024Z,16.60
2022-09-23T17:18:58.084Z,16.20
2022-09-23T17:24:03.321Z,16.20
2022-09-23T17:29:06.481Z,15.70
2022-09-23T17:34:09.584Z,15.30
2022-09-23T17:39:20.133Z,15.00
2022-09-23T17:44:25.503Z,15.30
2022-09-23T17:49:28.895Z,15.50
2022-09-23T17:54:33.371Z,15.60
2022-09-23T17:59:36.541Z,15.10
2022-09-23T18:04:42.425Z,15.00
2022-09-23T18:09:46.869Z,14.80
2022-09-23T18:14:50.062Z,14.80
2022-09-23T18:19:55.931Z,14.70
2022-09-23T18:25:13.102Z,14.60
2022-09-23T18:30:25.427Z,14.80
2022-09-23T18:35:28.700Z,14.60
2022-09-23T18:40:34.991Z,14.70
2022-09-23T18:45:38.596Z,14.70
2022-09-23T18:50:43.320Z,14.60
2022-09-23T18:55:48.665Z,14.20
2022-09-23T19:00:53.229Z,13.90
2022-09-23T19:06:01.954Z,13.80
2022-09-23T19:11:07.280Z,13.90
2022-09-23T19:16:14.151Z,13.90
2022-09-23T19:21:20.575Z,13.60
2022-09-23T19:26:25.862Z,13.60
2022-09-23T19:31:30.193Z,13.20
2022-09-23T19:36:34.787Z,13.40
2022-09-23T19:41:39.400Z,13.10
2022-09-23T19:46:45.162Z,13.00
2022-09-23T19:51:48.524Z,12.60
2022-09-23T19:56:52.976Z,12.90
2022-09-23T20:01:56.016Z,13.00
2022-09-23T20:07:01.068Z,12.60
2022-09-23T20:12:05.670Z,12.80
2022-09-23T20:17:08.691Z,12.60
2022-09-23T20:22:32.931Z,12.50
2022-09-23T20:27:38.097Z,12.50
2022-09-23T20:32:44.598Z,12.50
2022-09-23T20:37:48.116Z,12.60
2022-09-23T20:42:53.328Z,12.90
2022-09-23T20:48:01.759Z,12.50
2022-09-23T20:53:05.207Z,12.40
2022-09-23T20:58:09.862Z,12.30
2022-09-23T21:03:14.452Z,12.00
2022-09-23T21:08:20.228Z,11.70
2022-09-23T21:13:24.747Z,11.90
2022-09-23T21:18:28.163Z,11.60
2022-09-23T21:23:32.322Z,11.80
2022-09-23T21:28:37.609Z,11.50
2022-09-23T21:33:43.090Z,11.70
2022-09-23T21:38:46.324Z,11.60
2022-09-23T21:43:55.616Z,11.70
2022-09-23T21:48:58.744Z,11.50
2022-09-23T21:54:02.233Z,11.50
2022-09-23T21:59:10.098Z,11.50
2022-09-23T22:04:16.017Z,11.60
2022-09-23T22:09:20.491Z,11.30
2022-09-23T22:14:28.721Z,11.50
2022-09-23T22:19:35.486Z,11.20
2022-09-23T22:24:38.849Z,11.10
2022-09-23T22:30:01.338Z,11.00
2022-09-23T22:35:04.927Z,11.30
2022-09-23T22:40:10.151Z,11.20
2022-09-23T22:45:14.894Z,11.00
2022-09-23T22:50:18.212Z,10.80
2022-09-23T22:55:21.253Z,10.70
2022-09-23T23:00:27.021Z,10.50
2022-09-23T23:05:30.245Z,10.30
2022-09-23T23:10:33.315Z,10.30
2022-09-23T23:15:38.818Z,10.40
2022-09-23T23:20:42.126Z,10.10
2022-09-23T23:25:45.384Z,9.80
2022-09-23T23:30:50.009Z,9.80
2022-09-23T23:35:53.066Z,9.50
2022-09-23T23:40:56.539Z,9.80
2022-09-23T23:46:01.628Z,9.90
2022-09-23T23:51:06.427Z,10.60
2022-09-23T23:56:10.492Z,9.60
